createdAt,value
2018-11-03T00:01:25.810Z,8.90
2018-11-03T00:03:53.362Z,8.90
2018-11-03T00:06:20.915Z,9.00
2018-11-03T00:08:48.801Z,9.00
2018-11-03T00:11:16.224Z,9.00
2018-11-03T00:13:43.115Z,9.00
2018-11-03T00:16:10.055Z,9.00
2018-11-03T00:18:36.777Z,9.00
2018-11-03T00:21:04.244Z,9.00
2018-11-03T00:23:30.933Z,8.90
2018-11-03T00:25:57.672Z,8.90
2018-11-03T00:28:24.340Z,9.00
2018-11-03T00:30:51.769Z,9.00
2018-11-03T00:33:18.747Z,9.00
2018-11-03T00:35:46.178Z,9.00
2018-11-03T00:38:12.919Z,8.90
2018-11-03T00:40:39.747Z,9.00
2018-11-03T00:43:06.358Z,9.00
2018-11-03T00:45:33.079Z,9.00
2018-11-03T00:48:00.502Z,9.00
2018-11-03T00:50:27.240Z,9.00
2018-11-03T00:52:53.968Z,9.00
2018-11-03T00:55:20.644Z,9.10
2018-11-03T00:57:48.662Z,9.10
2018-11-03T01:00:15.447Z,9.10
2018-11-03T01:02:43.033Z,9.10
2018-11-03T01:05:10.523Z,9.10
2018-11-03T01:07:37.310Z,9.10
2018-11-03T01:10:04.250Z,9.20
2018-11-03T01:12:30.931Z,9.10
2018-11-03T01:14:58.381Z,9.10
2018-11-03T01:17:26.431Z,9.10
2018-11-03T01:19:53.501Z,9.10
2018-11-03T01:22:20.493Z,9.10
2018-11-03T01:24:47.724Z,9.10
2018-11-03T01:27:15.154Z,9.10
2018-11-03T01:29:42.352Z,9.10
2018-11-03T01:32:17.794Z,9.10
2018-11-03T01:34:45.072Z,9.10
2018-11-03T01:37:13.236Z,9.20
2018-11-03T01:39:43.496Z,9.20
2018-11-03T01:42:10.334Z,9.20
2018-11-03T01:44:37.122Z,9.10
2018-11-03T01:47:05.069Z,9.00
2018-11-03T01:49:32.835Z,9.00
2018-11-03T01:52:00.409Z,9.00
2018-11-03T01:54:28.581Z,9.00
2018-11-03T01:56:56.228Z,9.00
2018-11-03T01:59:24.761Z,9.00
2018-11-03T02:01:53.047Z,8.90
2018-11-03T02:04:19.758Z,8.90
2018-11-03T02:06:47.240Z,9.00
2018-11-03T02:09:15.294Z,9.00
2018-11-03T02:11:42.102Z,9.00
2018-11-03T02:14:10.176Z,9.00
2018-11-03T02:16:37.124Z,9.00
2018-11-03T02:19:05.270Z,9.00
2018-11-03T02:21:32.073Z,8.90
2018-11-03T02:23:58.750Z,9.00
2018-11-03T02:26:25.395Z,8.90
2018-11-03T02:28:54.277Z,8.90
2018-11-03T02:31:21.029Z,9.00
2018-11-03T02:33:47.736Z,9.00
2018-11-03T02:36:14.584Z,9.00
2018-11-03T02:38:42.588Z,9.00
2018-11-03T02:41:09.432Z,9.00
2018-11-03T02:43:36.948Z,9.00
2018-11-03T02:46:05.236Z,9.00
2018-11-03T02:48:32.358Z,9.00
2018-11-03T02:50:59.031Z,8.90
2018-11-03T02:53:26.478Z,8.90
2018-11-03T02:55:53.992Z,8.90
2018-11-03T02:58:20.671Z,8.90
2018-11-03T03:00:48.071Z,8.80
2018-11-03T03:03:14.993Z,8.80
2018-11-03T03:05:41.720Z,8.80
2018-11-03T03:08:09.140Z,8.90
2018-11-03T03:10:35.844Z,8.80
2018-11-03T03:13:02.502Z,8.90
2018-11-03T03:15:29.180Z,8.80
2018-11-03T03:17:55.872Z,8.90
2018-11-03T03:20:22.525Z,8.90
2018-11-03T03:22:49.323Z,8.90
2018-11-03T03:25:16.723Z,8.90
2018-11-03T03:27:43.371Z,9.00
2018-11-03T03:30:10.278Z,9.00
2018-11-03T03:32:36.998Z,9.00
2018-11-03T03:35:03.723Z,9.00
2018-11-03T03:37:31.263Z,9.00
2018-11-03T03:39:57.944Z,9.00
2018-11-03T03:42:40.372Z,8.90
2018-11-03T03:45:07.090Z,9.00
2018-11-03T03:47:33.759Z,9.00
2018-11-03T03:50:00.613Z,9.00
2018-11-03T03:52:27.258Z,9.00
2018-11-03T03:54:53.930Z,9.00
2018-11-03T03:57:20.847Z,8.90
2018-11-03T03:59:47.523Z,9.00
2018-11-03T04:04:46.472Z,9.00
2018-11-03T04:07:13.190Z,9.00
2018-11-03T04:09:39.873Z,9.00
2018-11-03T04:12:06.612Z,9.00
2018-11-03T04:14:33.282Z,9.00
2018-11-03T04:17:00.653Z,8.90
2018-11-03T04:19:27.478Z,8.90
2018-11-03T04:21:54.168Z,8.90
2018-11-03T04:24:20.833Z,8.90
2018-11-03T04:26:47.536Z,8.90
2018-11-03T04:29:14.330Z,8.90
2018-11-03T04:31:41.202Z,8.90
2018-11-03T04:34:07.949Z,8.90
2018-11-03T04:36:34.671Z,9.00
2018-11-03T04:39:01.868Z,9.00
2018-11-03T04:41:28.693Z,9.00
2018-11-03T04:43:55.758Z,9.00
2018-11-03T04:46:23.706Z,9.00
2018-11-03T04:48:50.766Z,8.90
2018-11-03T04:51:17.891Z,8.90
2018-11-03T04:53:45.542Z,9.00
2018-11-03T04:56:12.964Z,8.90
2018-11-03T04:58:39.656Z,8.90
2018-11-03T05:01:06.405Z,9.00
2018-11-03T05:03:33.121Z,9.00
2018-11-03T05:06:00.578Z,9.00
2018-11-03T05:08:27.252Z,9.00
2018-11-03T05:10:53.907Z,8.90
2018-11-03T05:13:20.618Z,9.00
2018-11-03T05:15:47.296Z,9.00
2018-11-03T05:18:14.741Z,9.10
2018-11-03T05:20:41.462Z,9.10
2018-11-03T05:23:08.174Z,9.10
2018-11-03T05:25:34.831Z,9.00
2018-11-03T05:28:01.650Z,9.00
2018-11-03T05:30:29.036Z,9.00
2018-11-03T05:32:55.703Z,9.00
2018-11-03T05:35:22.420Z,8.90
2018-11-03T05:37:49.098Z,8.90
2018-11-03T05:40:16.702Z,9.00
2018-11-03T05:42:43.387Z,8.90
2018-11-03T05:45:10.145Z,8.90
2018-11-03T05:47:36.867Z,8.90
2018-11-03T05:50:03.583Z,8.90
2018-11-03T05:52:31.050Z,8.80
2018-11-03T05:54:57.875Z,8.90
2018-11-03T05:57:25.384Z,8.80
2018-11-03T05:59:52.807Z,8.90
2018-11-03T06:02:19.617Z,8.80
2018-11-03T06:04:46.324Z,8.80
2018-11-03T06:07:13.806Z,8.90
2018-11-03T06:09:41.304Z,8.80
2018-11-03T06:12:08.021Z,8.80
2018-11-03T06:14:34.695Z,8.80
2018-11-03T06:17:01.496Z,8.80
2018-11-03T06:19:28.190Z,8.90
2018-11-03T06:21:54.861Z,8.80
2018-11-03T06:24:21.660Z,8.80
2018-11-03T06:26:48.312Z,8.80
2018-11-03T06:29:15.719Z,8.80
2018-11-03T06:31:42.513Z,8.80
2018-11-03T06:34:09.953Z,8.80
2018-11-03T06:36:36.610Z,8.70
2018-11-03T06:39:03.637Z,8.80
2018-11-03T06:41:30.255Z,8.80
2018-11-03T06:43:56.922Z,8.80
2018-11-03T06:46:23.843Z,8.80
2018-11-03T06:48:50.480Z,8.80
2018-11-03T06:51:17.138Z,8.80
2018-11-03T06:53:44.621Z,8.90
2018-11-03T06:56:12.088Z,8.90
2018-11-03T06:58:39.606Z,8.80
2018-11-03T07:01:06.298Z,8.80
2018-11-03T07:03:32.955Z,8.80
2018-11-03T07:05:59.755Z,8.90
2018-11-03T07:08:26.491Z,8.90
2018-11-03T07:10:53.911Z,9.00
2018-11-03T07:13:20.691Z,9.00
2018-11-03T07:15:47.296Z,9.00
2018-11-03T07:18:13.981Z,8.90
2018-11-03T07:20:40.861Z,9.00
2018-11-03T07:23:07.525Z,8.90
2018-11-03T07:25:34.195Z,8.90
2018-11-03T07:28:01.620Z,8.90
2018-11-03T07:30:28.274Z,8.90
2018-11-03T07:32:54.992Z,9.00
2018-11-03T07:35:21.674Z,9.00
2018-11-03T07:37:49.052Z,8.90
2018-11-03T07:40:15.844Z,8.90
2018-11-03T07:42:43.434Z,8.90
2018-11-03T07:45:10.152Z,8.90
2018-11-03T07:47:36.869Z,9.00
2018-11-03T07:50:04.525Z,9.00
2018-11-03T07:52:31.312Z,8.90
2018-11-03T07:54:58.122Z,8.90
2018-11-03T07:57:24.789Z,8.90
2018-11-03T07:59:52.235Z,8.80
2018-11-03T08:02:19.657Z,8.90
2018-11-03T08:04:47.109Z,8.90
2018-11-03T08:07:13.764Z,8.90
2018-11-03T08:09:40.437Z,9.00
2018-11-03T08:12:07.954Z,9.00
2018-11-03T08:14:34.709Z,9.00
2018-11-03T08:17:02.155Z,9.00
2018-11-03T08:19:28.975Z,9.00
2018-11-03T08:21:55.684Z,9.00
2018-11-03T08:24:23.105Z,9.10
2018-11-03T08:26:49.811Z,9.00
2018-11-03T08:29:16.496Z,9.00
2018-11-03T08:31:44.242Z,9.10
2018-11-03T08:34:10.855Z,9.10
2018-11-03T08:36:37.550Z,9.00
2018-11-03T08:39:05.159Z,9.00
2018-11-03T08:41:31.875Z,9.00
2018-11-03T08:43:58.531Z,9.20
2018-11-03T08:46:25.363Z,9.20
2018-11-03T08:48:52.255Z,9.10
2018-11-03T08:51:19.043Z,9.10
2018-11-03T08:53:45.893Z,9.10
2018-11-03T08:56:12.599Z,9.00
2018-11-03T08:58:39.301Z,9.10
2018-11-03T09:01:06.283Z,9.10
2018-11-03T09:03:33.734Z,9.40
2018-11-03T09:06:00.437Z,9.40
2018-11-03T09:08:27.274Z,9.40
2018-11-03T09:11:08.845Z,9.10
2018-11-03T09:13:35.601Z,9.20
2018-11-03T09:16:02.554Z,9.00
2018-11-03T09:18:30.015Z,9.10
2018-11-03T09:20:56.746Z,9.00
2018-11-03T09:23:23.424Z,9.10
2018-11-03T09:25:51.044Z,9.20
2018-11-03T09:28:17.722Z,9.20
2018-11-03T09:30:44.914Z,9.40
2018-11-03T09:33:11.914Z,9.50
2018-11-03T09:35:39.365Z,9.70
2018-11-03T09:38:06.109Z,9.70
2018-11-03T09:40:32.858Z,9.70
2018-11-03T09:42:59.571Z,9.60
2018-11-03T09:45:26.242Z,9.60
2018-11-03T09:47:54.576Z,9.60
2018-11-03T09:50:21.286Z,9.60
2018-11-03T09:52:47.961Z,9.50
2018-11-03T09:55:14.922Z,9.60
2018-11-03T09:57:41.635Z,9.50
2018-11-03T10:00:09.021Z,9.60
2018-11-03T10:02:35.894Z,9.60
2018-11-03T10:05:02.905Z,9.60
2018-11-03T10:07:29.635Z,9.40
2018-11-03T10:09:56.472Z,9.40
2018-11-03T10:12:23.860Z,9.50
2018-11-03T10:14:50.519Z,9.50
2018-11-03T10:17:17.980Z,9.70
2018-11-03T10:19:44.638Z,9.60
2018-11-03T10:22:11.482Z,9.70
2018-11-03T10:24:40.855Z,9.70
2018-11-03T10:27:09.220Z,9.70
2018-11-03T10:29:37.018Z,9.60
2018-11-03T10:32:04.841Z,9.60
2018-11-03T10:34:31.858Z,9.70
2018-11-03T10:36:58.628Z,9.70
2018-11-03T10:39:25.372Z,9.70
2018-11-03T10:41:52.808Z,9.80
2018-11-03T10:44:19.481Z,9.80
2018-11-03T10:46:46.439Z,9.90
2018-11-03T10:49:13.188Z,9.80
2018-11-03T10:51:39.891Z,9.80
2018-11-03T10:54:07.378Z,10.00
2018-11-03T10:56:34.046Z,10.00
2018-11-03T10:59:00.958Z,10.00
2018-11-03T11:01:45.335Z,9.90
2018-11-03T11:07:14.090Z,9.50
2018-11-03T11:09:40.880Z,9.60
2018-11-03T11:12:11.556Z,9.60
2018-11-03T11:14:38.220Z,9.80
2018-11-03T11:17:05.819Z,9.90
2018-11-03T11:19:33.232Z,9.90
2018-11-03T11:22:00.642Z,10.00
2018-11-03T11:24:27.581Z,9.90
2018-11-03T11:26:54.973Z,10.20
2018-11-03T11:29:21.663Z,10.30
2018-11-03T11:31:48.402Z,10.30
2018-11-03T11:34:15.106Z,10.30
2018-11-03T11:36:42.530Z,10.10
2018-11-03T11:39:09.257Z,10.10
2018-11-03T11:41:35.953Z,10.10
2018-11-03T11:44:03.372Z,10.30
2018-11-03T11:46:30.245Z,10.30
2018-11-03T11:48:56.904Z,10.20
2018-11-03T11:51:23.586Z,10.00
2018-11-03T11:53:50.348Z,10.00
2018-11-03T11:56:17.033Z,9.90
2018-11-03T11:58:43.726Z,10.00
2018-11-03T12:01:10.458Z,10.20
2018-11-03T12:03:37.145Z,10.30
2018-11-03T12:06:04.788Z,10.40
2018-11-03T12:08:31.433Z,10.40
2018-11-03T12:10:58.150Z,10.20
2018-11-03T12:13:24.972Z,10.40
2018-11-03T12:15:51.660Z,10.10
2018-11-03T12:18:18.323Z,10.00
2018-11-03T12:20:45.090Z,9.90
2018-11-03T12:23:11.761Z,9.70
2018-11-03T12:25:39.286Z,9.50
2018-11-03T12:28:06.050Z,9.50
2018-11-03T12:30:38.767Z,9.40
2018-11-03T12:33:05.456Z,9.50
2018-11-03T12:35:32.300Z,9.70
2018-11-03T12:37:59.718Z,9.50
2018-11-03T12:40:26.396Z,9.50
2018-11-03T12:42:53.270Z,9.40
2018-11-03T12:45:20.719Z,9.40
2018-11-03T12:47:47.362Z,9.40
2018-11-03T12:50:14.252Z,9.50
2018-11-03T12:52:40.956Z,9.50
2018-11-03T12:55:07.806Z,9.40
2018-11-03T12:57:34.475Z,9.40
2018-11-03T13:00:01.217Z,9.60
2018-11-03T13:02:28.764Z,9.50
2018-11-03T13:04:55.474Z,9.40
2018-11-03T13:07:22.150Z,9.40
2018-11-03T13:09:48.984Z,9.60
2018-11-03T13:12:16.309Z,9.50
2018-11-03T13:14:43.994Z,9.80
2018-11-03T13:17:10.979Z,9.80
2018-11-03T13:19:37.890Z,10.00
2018-11-03T13:22:04.793Z,9.90
2018-11-03T13:24:31.764Z,9.80
2018-11-03T13:26:58.513Z,9.70
2018-11-03T13:29:25.363Z,9.60
2018-11-03T13:31:52.236Z,9.50
2018-11-03T13:34:19.084Z,9.50
2018-11-03T13:36:45.769Z,9.30
2018-11-03T13:39:12.576Z,9.20
2018-11-03T13:41:39.478Z,9.00
2018-11-03T13:44:06.228Z,8.80
2018-11-03T13:46:32.970Z,8.90
2018-11-03T13:48:59.635Z,8.60
2018-11-03T13:51:26.294Z,8.40
2018-11-03T13:53:53.027Z,8.30
2018-11-03T13:56:19.691Z,8.20
2018-11-03T13:58:48.152Z,8.20
2018-11-03T14:01:15.035Z,8.20
2018-11-03T14:03:41.996Z,8.10
2018-11-03T14:06:08.720Z,7.90
2018-11-03T14:08:35.568Z,7.80
2018-11-03T14:11:02.302Z,7.70
2018-11-03T14:13:29.054Z,7.60
2018-11-03T14:15:55.852Z,7.50
2018-11-03T14:18:22.515Z,7.30
2018-11-03T14:20:49.305Z,7.20
2018-11-03T14:23:17.778Z,7.00
2018-11-03T14:25:44.421Z,7.00
2018-11-03T14:28:11.045Z,6.90
2018-11-03T14:30:37.855Z,6.80
2018-11-03T14:33:19.534Z,6.70
2018-11-03T14:35:46.239Z,6.60
2018-11-03T14:38:13.814Z,6.40
2018-11-03T14:40:40.468Z,6.30
2018-11-03T14:43:07.899Z,6.20
2018-11-03T14:45:34.717Z,6.20
2018-11-03T14:48:01.380Z,6.20
2018-11-03T14:50:28.066Z,6.10
2018-11-03T14:52:54.872Z,6.00
2018-11-03T14:55:21.530Z,5.90
2018-11-03T14:57:48.938Z,5.80
2018-11-03T15:00:15.755Z,5.80
2018-11-03T15:02:42.443Z,5.80
2018-11-03T15:05:09.870Z,5.60
2018-11-03T15:07:36.684Z,5.60
2018-11-03T15:10:03.396Z,5.50
2018-11-03T15:12:30.803Z,5.40
2018-11-03T15:14:57.654Z,5.40
2018-11-03T15:17:24.290Z,5.30
2018-11-03T15:19:50.986Z,5.30
2018-11-03T15:22:17.805Z,5.30
2018-11-03T15:24:45.231Z,5.30
2018-11-03T15:27:11.980Z,5.30
2018-11-03T15:29:38.800Z,5.40
2018-11-03T15:32:05.505Z,5.50
2018-11-03T15:34:32.217Z,5.50
2018-11-03T15:36:58.856Z,5.50
2018-11-03T15:39:25.574Z,5.50
2018-11-03T15:41:52.448Z,5.50
2018-11-03T15:44:19.112Z,5.60
2018-11-03T15:46:45.783Z,5.50
2018-11-03T15:49:12.571Z,5.50
2018-11-03T15:51:39.289Z,5.50
2018-11-03T15:54:06.455Z,5.50
2018-11-03T15:56:33.450Z,5.50
2018-11-03T15:59:00.111Z,5.50
2018-11-03T16:01:26.765Z,5.50
2018-11-03T16:03:53.569Z,5.50
2018-11-03T16:06:20.231Z,5.60
2018-11-03T16:08:46.896Z,5.60
2018-11-03T16:11:13.622Z,5.70
2018-11-03T16:13:40.301Z,5.80
2018-11-03T16:16:07.015Z,5.80
2018-11-03T16:18:33.731Z,5.90
2018-11-03T16:21:00.408Z,5.90
2018-11-03T16:23:27.844Z,6.10
2018-11-03T16:25:55.476Z,6.10
2018-11-03T16:28:22.196Z,6.00
2018-11-03T16:30:48.881Z,6.00
2018-11-03T16:33:15.582Z,6.00
2018-11-03T16:35:43.241Z,6.20
2018-11-03T16:38:09.870Z,6.10
2018-11-03T16:40:36.711Z,6.30
2018-11-03T16:43:03.471Z,6.20
2018-11-03T16:45:30.157Z,6.30
2018-11-03T16:47:57.600Z,6.30
2018-11-03T16:50:24.256Z,6.30
2018-11-03T16:52:51.076Z,6.30
2018-11-03T16:55:17.779Z,6.30
2018-11-03T16:57:44.471Z,6.30
2018-11-03T17:00:12.156Z,6.30
2018-11-03T17:02:38.857Z,6.30
2018-11-03T17:05:05.569Z,6.30
2018-11-03T17:07:32.285Z,6.30
2018-11-03T17:09:58.953Z,6.20
2018-11-03T17:12:25.669Z,6.30
2018-11-03T17:14:52.511Z,6.20
2018-11-03T17:17:19.199Z,6.40
2018-11-03T17:19:45.960Z,6.20
2018-11-03T17:22:14.296Z,6.10
2018-11-03T17:24:41.179Z,6.10
2018-11-03T17:27:08.686Z,6.10
2018-11-03T17:29:35.355Z,6.10
2018-11-03T17:32:02.169Z,6.10
2018-11-03T17:34:28.834Z,6.10
2018-11-03T17:36:55.634Z,6.00
2018-11-03T17:39:22.682Z,6.20
2018-11-03T17:41:49.387Z,6.10
2018-11-03T17:44:16.847Z,6.10
2018-11-03T17:46:44.441Z,6.10
2018-11-03T17:49:11.115Z,6.00
2018-11-03T17:51:37.815Z,6.00
2018-11-03T17:54:04.558Z,6.00
2018-11-03T17:56:31.191Z,6.00
2018-11-03T17:58:57.996Z,5.90
2018-11-03T18:01:25.658Z,5.80
2018-11-03T18:03:52.143Z,5.80
2018-11-03T18:06:19.059Z,5.80
2018-11-03T18:08:46.507Z,5.70
2018-11-03T18:11:13.969Z,5.50
2018-11-03T18:13:40.836Z,5.50
2018-11-03T18:16:07.477Z,5.40
2018-11-03T18:18:34.162Z,5.20
2018-11-03T18:21:00.984Z,5.00
2018-11-03T18:23:27.626Z,5.00
2018-11-03T18:25:54.343Z,4.80
2018-11-03T18:28:21.137Z,4.80
2018-11-03T18:30:48.545Z,4.60
2018-11-03T18:33:15.292Z,4.60
2018-11-03T18:35:42.069Z,4.50
2018-11-03T18:38:09.511Z,4.50
2018-11-03T18:40:36.155Z,4.50
2018-11-03T18:43:03.700Z,4.40
2018-11-03T18:45:30.369Z,4.30
2018-11-03T18:47:57.865Z,4.20
2018-11-03T18:50:24.814Z,4.20
2018-11-03T18:52:51.492Z,4.10
2018-11-03T18:55:19.012Z,4.00
2018-11-03T18:57:45.950Z,3.90
2018-11-03T19:00:12.693Z,3.90
2018-11-03T19:02:39.599Z,3.90
2018-11-03T19:05:06.376Z,3.90
2018-11-03T19:07:33.119Z,3.90
2018-11-03T19:09:59.914Z,3.80
2018-11-03T19:12:26.992Z,3.80
2018-11-03T19:14:53.724Z,3.80
2018-11-03T19:17:21.319Z,3.70
2018-11-03T19:19:48.049Z,3.70
2018-11-03T19:22:14.742Z,3.60
2018-11-03T19:24:41.534Z,3.50
2018-11-03T19:27:08.189Z,3.50
2018-11-03T19:29:34.899Z,3.40
2018-11-03T19:32:02.411Z,3.30
2018-11-03T19:34:29.845Z,3.20
2018-11-03T19:36:56.635Z,3.20
2018-11-03T19:39:24.070Z,3.10
2018-11-03T19:41:50.805Z,3.00
2018-11-03T19:44:17.589Z,3.00
2018-11-03T19:46:44.267Z,3.00
2018-11-03T19:49:10.932Z,3.00
2018-11-03T19:51:37.892Z,3.00
2018-11-03T19:54:04.574Z,3.00
2018-11-03T19:56:31.364Z,2.90
2018-11-03T19:58:59.089Z,2.90
2018-11-03T20:01:25.794Z,2.90
2018-11-03T20:03:52.795Z,2.90
2018-11-03T20:06:19.661Z,2.90
2018-11-03T20:08:47.134Z,2.80
2018-11-03T20:11:14.528Z,2.80
2018-11-03T20:13:41.356Z,2.80
2018-11-03T20:16:08.105Z,2.80
2018-11-03T20:18:34.779Z,2.70
2018-11-03T20:21:01.600Z,2.70
2018-11-03T20:23:28.318Z,2.60
2018-11-03T20:25:54.977Z,2.60
2018-11-03T20:28:21.810Z,2.60
2018-11-03T20:30:48.469Z,2.70
2018-11-03T20:33:15.134Z,2.60
2018-11-03T20:35:41.848Z,2.60
2018-11-03T20:38:08.548Z,2.60
2018-11-03T20:40:35.219Z,2.60
2018-11-03T20:43:02.041Z,2.60
2018-11-03T20:45:29.238Z,2.50
2018-11-03T20:47:56.030Z,2.40
2018-11-03T20:50:22.717Z,2.40
2018-11-03T20:52:49.356Z,2.40
2018-11-03T20:55:16.096Z,2.40
2018-11-03T20:57:42.889Z,2.40
2018-11-03T21:00:09.946Z,2.40
2018-11-03T21:02:37.428Z,2.40
2018-11-03T21:05:04.277Z,2.30
2018-11-03T21:07:31.023Z,2.40
2018-11-03T21:09:57.677Z,2.40
2018-11-03T21:12:24.487Z,2.40
2018-11-03T21:14:51.300Z,2.40
2018-11-03T21:17:18.039Z,2.40
2018-11-03T21:19:44.782Z,2.40
2018-11-03T21:22:11.479Z,2.40
2018-11-03T21:24:39.029Z,2.40
2018-11-03T21:27:05.698Z,2.40
2018-11-03T21:29:33.089Z,2.40
2018-11-03T21:32:00.298Z,2.40
2018-11-03T21:34:26.820Z,2.40
2018-11-03T21:36:53.460Z,2.50
2018-11-03T21:39:20.977Z,2.50
2018-11-03T21:41:47.624Z,2.50
2018-11-03T21:44:14.261Z,2.50
2018-11-03T21:46:41.069Z,2.50
2018-11-03T21:49:08.602Z,2.60
2018-11-03T21:51:35.290Z,2.60
2018-11-03T21:54:01.972Z,2.60
2018-11-03T21:56:28.653Z,2.60
2018-11-03T21:58:55.692Z,2.60
2018-11-03T22:01:23.083Z,2.70
2018-11-03T22:03:50.140Z,2.70
2018-11-03T22:06:17.045Z,2.70
2018-11-03T22:08:43.707Z,2.70
2018-11-03T22:11:11.031Z,2.70
2018-11-03T22:13:37.884Z,2.70
2018-11-03T22:16:04.586Z,2.70
2018-11-03T22:18:32.780Z,2.80
2018-11-03T22:21:00.543Z,2.80
2018-11-03T22:23:27.336Z,2.80
2018-11-03T22:25:54.741Z,2.80
2018-11-03T22:28:21.436Z,2.80
2018-11-03T22:30:48.123Z,2.90
2018-11-03T22:33:15.921Z,2.90
2018-11-03T22:35:43.629Z,3.00
2018-11-03T22:38:11.341Z,3.10
2018-11-03T22:40:38.950Z,3.00
2018-11-03T22:43:06.239Z,3.10
2018-11-03T22:45:33.275Z,3.20
2018-11-03T22:48:01.371Z,3.20
2018-11-03T22:50:28.253Z,3.30
2018-11-03T22:52:55.240Z,3.30
2018-11-03T22:55:21.891Z,3.40
2018-11-03T22:57:48.851Z,3.40
2018-11-03T23:00:15.772Z,3.50
2018-11-03T23:02:43.214Z,3.50
2018-11-03T23:05:11.234Z,3.50
2018-11-03T23:07:38.937Z,3.50
2018-11-03T23:10:06.456Z,3.50
2018-11-03T23:12:33.318Z,3.50
2018-11-03T23:15:00.983Z,3.50
2018-11-03T23:17:27.739Z,3.60
2018-11-03T23:19:56.036Z,3.70
2018-11-03T23:22:23.582Z,3.80
2018-11-03T23:24:50.398Z,3.70
2018-11-03T23:27:17.320Z,3.80
2018-11-03T23:29:45.329Z,3.80
2018-11-03T23:32:13.623Z,3.80
2018-11-03T23:34:40.532Z,3.80
2018-11-03T23:37:07.400Z,3.90
2018-11-03T23:39:36.683Z,4.00
2018-11-03T23:42:03.445Z,4.00
2018-11-03T23:44:32.042Z,4.10
2018-11-03T23:46:58.718Z,4.10
2018-11-03T23:49:26.900Z,4.20
2018-11-03T23:51:54.481Z,4.20
2018-11-03T23:54:22.023Z,4.30
2018-11-03T23:56:48.670Z,4.30
2018-11-03T23:59:15.493Z,4.30
